sensor_id;sensor_type;location;lat;lon;timestamp;temperature;humidity
810;DHT22;387;48.772;9.186;2023-04-24T00:00:55;11.90;80.80
810;DHT22;387;48.772;9.186;2023-04-24T00:03:24;11.90;80.80
810;DHT22;387;48.772;9.186;2023-04-24T00:05:50;11.90;80.50
810;DHT22;387;48.772;9.186;2023-04-24T00:08:16;11.90;80.50
810;DHT22;387;48.772;9.186;2023-04-24T00:10:42;11.90;80.80
810;DHT22;387;48.772;9.186;2023-04-24T00:13:08;11.90;80.80
810;DHT22;387;48.772;9.186;2023-04-24T00:15:33;11.90;80.50
810;DHT22;387;48.772;9.186;2023-04-24T00:17:59;11.90;80.60
810;DHT22;387;48.772;9.186;2023-04-24T00:20:26;11.90;80.60
810;DHT22;387;48.772;9.186;2023-04-24T00:22:53;11.80;80.60
810;DHT22;387;48.772;9.186;2023-04-24T00:25:19;11.90;80.30
810;DHT22;387;48.772;9.186;2023-04-24T00:27:44;11.90;80.50
810;DHT22;387;48.772;9.186;2023-04-24T00:30:10;11.90;80.30
810;DHT22;387;48.772;9.186;2023-04-24T00:32:36;11.90;80.00
810;DHT22;387;48.772;9.186;2023-04-24T00:35:01;12.00;79.60
810;DHT22;387;48.772;9.186;2023-04-24T00:37:27;12.00;79.30
810;DHT22;387;48.772;9.186;2023-04-24T00:39:52;12.00;79.00
810;DHT22;387;48.772;9.186;2023-04-24T00:42:18;12.10;78.90
810;DHT22;387;48.772;9.186;2023-04-24T00:44:44;12.10;78.90
810;DHT22;387;48.772;9.186;2023-04-24T00:47:10;12.10;78.90
810;DHT22;387;48.772;9.186;2023-04-24T00:49:37;12.10;78.70
810;DHT22;387;48.772;9.186;2023-04-24T00:52:02;12.20;78.60
810;DHT22;387;48.772;9.186;2023-04-24T00:54:32;12.20;78.00
810;DHT22;387;48.772;9.186;2023-04-24T00:56:58;12.20;77.60
810;DHT22;387;48.772;9.186;2023-04-24T00:59:24;12.30;77.60
810;DHT22;387;48.772;9.186;2023-04-24T01:01:50;12.20;77.60
810;DHT22;387;48.772;9.186;2023-04-24T01:04:17;12.20;77.30
810;DHT22;387;48.772;9.186;2023-04-24T01:06:44;12.20;77.40
810;DHT22;387;48.772;9.186;2023-04-24T01:09:11;12.30;77.30
810;DHT22;387;48.772;9.186;2023-04-24T01:11:37;12.30;77.00
810;DHT22;387;48.772;9.186;2023-04-24T01:14:03;12.30;77.10
810;DHT22;387;48.772;9.186;2023-04-24T01:16:29;12.30;77.00
810;DHT22;387;48.772;9.186;2023-04-24T01:18:54;12.30;77.10
810;DHT22;387;48.772;9.186;2023-04-24T01:21:21;12.30;77.10
810;DHT22;387;48.772;9.186;2023-04-24T01:23:46;12.30;77.30
810;DHT22;387;48.772;9.186;2023-04-24T01:26:14;12.30;77.40
810;DHT22;387;48.772;9.186;2023-04-24T01:28:40;12.20;77.60
810;DHT22;387;48.772;9.186;2023-04-24T01:31:06;12.20;77.80
810;DHT22;387;48.772;9.186;2023-04-24T01:33:33;12.20;78.30
810;DHT22;387;48.772;9.186;2023-04-24T01:35:58;12.20;78.90
810;DHT22;387;48.772;9.186;2023-04-24T01:38:25;12.10;79.70
810;DHT22;387;48.772;9.186;2023-04-24T01:40:51;12.00;80.30
810;DHT22;387;48.772;9.186;2023-04-24T01:43:17;11.90;80.90
810;DHT22;387;48.772;9.186;2023-04-24T01:45:43;11.90;81.40
810;DHT22;387;48.772;9.186;2023-04-24T01:48:09;11.90;81.20
810;DHT22;387;48.772;9.186;2023-04-24T01:50:35;11.90;81.20
810;DHT22;387;48.772;9.186;2023-04-24T01:53:00;11.80;81.10
810;DHT22;387;48.772;9.186;2023-04-24T01:55:26;11.90;81.10
810;DHT22;387;48.772;9.186;2023-04-24T01:57:56;11.80;80.90
810;DHT22;387;48.772;9.186;2023-04-24T02:00:22;11.80;81.20
810;DHT22;387;48.772;9.186;2023-04-24T02:02:47;11.80;81.10
810;DHT22;387;48.772;9.186;2023-04-24T02:05:13;11.80;81.20
810;DHT22;387;48.772;9.186;2023-04-24T02:07:38;11.80;81.40
810;DHT22;387;48.772;9.186;2023-04-24T02:10:05;11.80;81.40
810;DHT22;387;48.772;9.186;2023-04-24T02:12:31;11.80;81.40
810;DHT22;387;48.772;9.186;2023-04-24T02:14:56;11.80;81.20
810;DHT22;387;48.772;9.186;2023-04-24T02:17:22;11.80;81.10
810;DHT22;387;48.772;9.186;2023-04-24T02:19:48;11.80;81.10
810;DHT22;387;48.772;9.186;2023-04-24T02:22:14;11.80;80.90
810;DHT22;387;48.772;9.186;2023-04-24T02:24:39;11.80;80.90
810;DHT22;387;48.772;9.186;2023-04-24T02:27:05;11.80;81.10
810;DHT22;387;48.772;9.186;2023-04-24T02:29:31;11.90;80.90
810;DHT22;387;48.772;9.186;2023-04-24T02:31:57;11.80;80.90
810;DHT22;387;48.772;9.186;2023-04-24T02:34:22;11.80;80.80
810;DHT22;387;48.772;9.186;2023-04-24T02:36:48;11.80;80.60
810;DHT22;387;48.772;9.186;2023-04-24T02:39:14;11.80;80.60
810;DHT22;387;48.772;9.186;2023-04-24T02:41:42;11.80;80.90
810;DHT22;387;48.772;9.186;2023-04-24T02:44:08;11.80;81.10
810;DHT22;387;48.772;9.186;2023-04-24T02:46:33;11.80;81.20
810;DHT22;387;48.772;9.186;2023-04-24T02:48:59;11.90;81.90
810;DHT22;387;48.772;9.186;2023-04-24T02:51:25;11.80;82.80
810;DHT22;387;48.772;9.186;2023-04-24T02:53:50;11.60;84.00
810;DHT22;387;48.772;9.186;2023-04-24T02:56:16;11.60;84.70
810;DHT22;387;48.772;9.186;2023-04-24T02:58:41;11.50;85.20
810;DHT22;387;48.772;9.186;2023-04-24T03:01:08;11.40;85.60
810;DHT22;387;48.772;9.186;2023-04-24T03:03:35;11.40;85.70
810;DHT22;387;48.772;9.186;2023-04-24T03:06:01;11.40;86.20
810;DHT22;387;48.772;9.186;2023-04-24T03:08:27;11.30;86.20
810;DHT22;387;48.772;9.186;2023-04-24T03:10:53;11.40;86.20
810;DHT22;387;48.772;9.186;2023-04-24T03:13:18;11.30;86.00
810;DHT22;387;48.772;9.186;2023-04-24T03:15:44;11.30;86.00
810;DHT22;387;48.772;9.186;2023-04-24T03:18:10;11.30;86.00
810;DHT22;387;48.772;9.186;2023-04-24T03:20:35;11.30;86.20
810;DHT22;387;48.772;9.186;2023-04-24T03:23:02;11.20;86.20
810;DHT22;387;48.772;9.186;2023-04-24T03:25:28;11.20;86.00
810;DHT22;387;48.772;9.186;2023-04-24T03:27:54;11.20;86.30
810;DHT22;387;48.772;9.186;2023-04-24T03:30:20;11.10;86.60
810;DHT22;387;48.772;9.186;2023-04-24T03:32:45;11.10;86.80
810;DHT22;387;48.772;9.186;2023-04-24T03:35:11;11.10;86.80
810;DHT22;387;48.772;9.186;2023-04-24T03:37:36;11.10;86.80
810;DHT22;387;48.772;9.186;2023-04-24T03:40:02;11.10;86.60
810;DHT22;387;48.772;9.186;2023-04-24T03:42:28;11.10;86.80
810;DHT22;387;48.772;9.186;2023-04-24T03:44:54;11.20;86.80
810;DHT22;387;48.772;9.186;2023-04-24T03:47:19;11.20;86.80
810;DHT22;387;48.772;9.186;2023-04-24T03:49:45;11.20;86.50
810;DHT22;387;48.772;9.186;2023-04-24T03:52:11;11.20;86.60
810;DHT22;387;48.772;9.186;2023-04-24T03:54:36;11.10;86.30
810;DHT22;387;48.772;9.186;2023-04-24T03:57:02;11.10;86.30
810;DHT22;387;48.772;9.186;2023-04-24T03:59:30;11.10;86.20
810;DHT22;387;48.772;9.186;2023-04-24T04:02:15;11.10;86.00
810;DHT22;387;48.772;9.186;2023-04-24T04:04:40;11.10;85.70
810;DHT22;387;48.772;9.186;2023-04-24T04:07:06;11.10;85.70
810;DHT22;387;48.772;9.186;2023-04-24T04:09:32;11.10;85.90
810;DHT22;387;48.772;9.186;2023-04-24T04:11:58;11.10;85.70
810;DHT22;387;48.772;9.186;2023-04-24T04:14:24;11.20;85.50
810;DHT22;387;48.772;9.186;2023-04-24T04:16:49;11.10;85.30
810;DHT22;387;48.772;9.186;2023-04-24T04:19:15;11.20;85.20
810;DHT22;387;48.772;9.186;2023-04-24T04:21:41;11.20;84.60
810;DHT22;387;48.772;9.186;2023-04-24T04:24:06;11.30;84.60
810;DHT22;387;48.772;9.186;2023-04-24T04:26:32;11.40;84.10
810;DHT22;387;48.772;9.186;2023-04-24T04:28:59;11.30;84.90
810;DHT22;387;48.772;9.186;2023-04-24T04:31:26;11.30;85.70
810;DHT22;387;48.772;9.186;2023-04-24T04:33:51;11.40;86.80
810;DHT22;387;48.772;9.186;2023-04-24T04:36:17;11.30;87.00
810;DHT22;387;48.772;9.186;2023-04-24T04:38:43;11.10;87.70
810;DHT22;387;48.772;9.186;2023-04-24T04:41:10;10.90;87.40
810;DHT22;387;48.772;9.186;2023-04-24T04:43:36;10.80;85.70
810;DHT22;387;48.772;9.186;2023-04-24T04:46:01;10.60;85.00
810;DHT22;387;48.772;9.186;2023-04-24T04:48:28;10.40;84.00
810;DHT22;387;48.772;9.186;2023-04-24T04:50:57;10.20;83.70
810;DHT22;387;48.772;9.186;2023-04-24T04:53:23;10.10;84.70
810;DHT22;387;48.772;9.186;2023-04-24T04:55:48;10.10;85.60
810;DHT22;387;48.772;9.186;2023-04-24T04:58:14;10.00;85.50
810;DHT22;387;48.772;9.186;2023-04-24T05:00:40;10.00;86.50
810;DHT22;387;48.772;9.186;2023-04-24T05:03:07;10.10;86.50
810;DHT22;387;48.772;9.186;2023-04-24T05:05:32;10.10;85.70
810;DHT22;387;48.772;9.186;2023-04-24T05:07:58;10.10;85.50
810;DHT22;387;48.772;9.186;2023-04-24T05:10:23;10.10;85.70
810;DHT22;387;48.772;9.186;2023-04-24T05:12:49;10.20;86.20
810;DHT22;387;48.772;9.186;2023-04-24T05:15:15;10.20;85.60
810;DHT22;387;48.772;9.186;2023-04-24T05:17:40;10.10;86.00
810;DHT22;387;48.772;9.186;2023-04-24T05:20:06;10.20;85.90
810;DHT22;387;48.772;9.186;2023-04-24T05:22:32;10.10;86.00
810;DHT22;387;48.772;9.186;2023-04-24T05:24:58;10.10;85.70
810;DHT22;387;48.772;9.186;2023-04-24T05:27:24;10.10;85.00
810;DHT22;387;48.772;9.186;2023-04-24T05:29:50;10.10;84.60
810;DHT22;387;48.772;9.186;2023-04-24T05:32:15;10.10;85.20
810;DHT22;387;48.772;9.186;2023-04-24T05:34:41;10.20;85.30
810;DHT22;387;48.772;9.186;2023-04-24T05:37:06;10.20;84.40
810;DHT22;387;48.772;9.186;2023-04-24T05:39:35;10.20;84.90
810;DHT22;387;48.772;9.186;2023-04-24T05:42:01;10.20;84.40
810;DHT22;387;48.772;9.186;2023-04-24T05:44:27;10.20;84.60
810;DHT22;387;48.772;9.186;2023-04-24T05:46:52;10.20;84.10
810;DHT22;387;48.772;9.186;2023-04-24T05:49:18;10.30;84.30
810;DHT22;387;48.772;9.186;2023-04-24T05:51:44;10.30;84.30
810;DHT22;387;48.772;9.186;2023-04-24T05:54:10;10.20;84.10
810;DHT22;387;48.772;9.186;2023-04-24T05:56:37;10.20;84.10
810;DHT22;387;48.772;9.186;2023-04-24T05:59:03;10.30;84.00
810;DHT22;387;48.772;9.186;2023-04-24T06:01:29;10.30;84.10
810;DHT22;387;48.772;9.186;2023-04-24T06:03:55;10.30;83.70
810;DHT22;387;48.772;9.186;2023-04-24T06:06:20;10.40;83.60
810;DHT22;387;48.772;9.186;2023-04-24T06:08:46;10.40;83.10
810;DHT22;387;48.772;9.186;2023-04-24T06:11:11;10.30;83.00
810;DHT22;387;48.772;9.186;2023-04-24T06:13:37;10.30;83.10
810;DHT22;387;48.772;9.186;2023-04-24T06:16:03;10.40;83.10
810;DHT22;387;48.772;9.186;2023-04-24T06:18:28;10.40;82.50
810;DHT22;387;48.772;9.186;2023-04-24T06:20:54;10.40;81.70
810;DHT22;387;48.772;9.186;2023-04-24T06:23:20;10.40;81.80
810;DHT22;387;48.772;9.186;2023-04-24T06:25:46;10.40;81.50
810;DHT22;387;48.772;9.186;2023-04-24T06:28:12;10.50;81.40
810;DHT22;387;48.772;9.186;2023-04-24T06:30:38;10.60;81.40
810;DHT22;387;48.772;9.186;2023-04-24T06:33:03;10.70;80.90
810;DHT22;387;48.772;9.186;2023-04-24T06:35:29;10.80;80.80
810;DHT22;387;48.772;9.186;2023-04-24T06:37:55;10.90;80.00
810;DHT22;387;48.772;9.186;2023-04-24T06:40:21;11.00;80.00
810;DHT22;387;48.772;9.186;2023-04-24T06:42:47;11.10;79.90
810;DHT22;387;48.772;9.186;2023-04-24T06:45:13;11.10;78.30
810;DHT22;387;48.772;9.186;2023-04-24T06:47:38;11.20;77.80
810;DHT22;387;48.772;9.186;2023-04-24T06:50:04;11.30;77.70
810;DHT22;387;48.772;9.186;2023-04-24T06:52:30;11.40;77.10
810;DHT22;387;48.772;9.186;2023-04-24T06:55:02;11.40;76.10
810;DHT22;387;48.772;9.186;2023-04-24T06:57:28;11.40;75.50
810;DHT22;387;48.772;9.186;2023-04-24T06:59:55;11.50;75.20
810;DHT22;387;48.772;9.186;2023-04-24T07:02:21;11.70;75.10
810;DHT22;387;48.772;9.186;2023-04-24T07:04:46;11.80;73.70
810;DHT22;387;48.772;9.186;2023-04-24T07:07:13;11.80;73.20
810;DHT22;387;48.772;9.186;2023-04-24T07:09:40;11.80;72.70
810;DHT22;387;48.772;9.186;2023-04-24T07:12:08;11.90;72.60
810;DHT22;387;48.772;9.186;2023-04-24T07:14:34;12.00;72.60
810;DHT22;387;48.772;9.186;2023-04-24T07:17:00;12.00;72.30
810;DHT22;387;48.772;9.186;2023-04-24T07:19:26;11.90;72.10
810;DHT22;387;48.772;9.186;2023-04-24T07:21:52;11.90;73.00
810;DHT22;387;48.772;9.186;2023-04-24T07:24:18;11.90;72.90
810;DHT22;387;48.772;9.186;2023-04-24T07:26:44;11.80;72.90
810;DHT22;387;48.772;9.186;2023-04-24T07:29:12;11.80;72.40
810;DHT22;387;48.772;9.186;2023-04-24T07:31:38;11.90;72.10
810;DHT22;387;48.772;9.186;2023-04-24T07:34:04;12.00;69.80
810;DHT22;387;48.772;9.186;2023-04-24T07:36:29;11.90;68.90
810;DHT22;387;48.772;9.186;2023-04-24T07:38:55;12.00;69.10
810;DHT22;387;48.772;9.186;2023-04-24T07:41:22;12.00;67.90
810;DHT22;387;48.772;9.186;2023-04-24T07:43:49;12.10;68.80
810;DHT22;387;48.772;9.186;2023-04-24T07:46:15;12.30;68.20
810;DHT22;387;48.772;9.186;2023-04-24T07:48:40;12.30;67.30
810;DHT22;387;48.772;9.186;2023-04-24T07:51:06;12.40;67.90
810;DHT22;387;48.772;9.186;2023-04-24T07:53:32;12.60;68.80
810;DHT22;387;48.772;9.186;2023-04-24T07:55:57;12.80;68.00
810;DHT22;387;48.772;9.186;2023-04-24T07:58:23;13.00;68.20
810;DHT22;387;48.772;9.186;2023-04-24T08:00:49;13.00;66.00
810;DHT22;387;48.772;9.186;2023-04-24T08:03:14;12.90;65.70
810;DHT22;387;48.772;9.186;2023-04-24T08:05:43;12.90;65.40
810;DHT22;387;48.772;9.186;2023-04-24T08:08:09;12.90;66.00
810;DHT22;387;48.772;9.186;2023-04-24T08:10:34;12.80;65.40
810;DHT22;387;48.772;9.186;2023-04-24T08:13:00;12.70;65.10
810;DHT22;387;48.772;9.186;2023-04-24T08:15:26;12.60;65.40
810;DHT22;387;48.772;9.186;2023-04-24T08:17:52;12.50;65.10
810;DHT22;387;48.772;9.186;2023-04-24T08:20:18;12.50;65.70
810;DHT22;387;48.772;9.186;2023-04-24T08:22:44;12.40;65.60
810;DHT22;387;48.772;9.186;2023-04-24T08:25:10;12.50;65.80
810;DHT22;387;48.772;9.186;2023-04-24T08:27:36;12.50;65.60
810;DHT22;387;48.772;9.186;2023-04-24T08:30:03;12.50;65.60
810;DHT22;387;48.772;9.186;2023-04-24T08:32:30;12.50;66.00
810;DHT22;387;48.772;9.186;2023-04-24T08:34:59;12.30;65.10
810;DHT22;387;48.772;9.186;2023-04-24T08:37:26;12.30;65.40
810;DHT22;387;48.772;9.186;2023-04-24T08:39:52;12.40;65.30
810;DHT22;387;48.772;9.186;2023-04-24T08:42:18;12.50;65.70
810;DHT22;387;48.772;9.186;2023-04-24T08:44:44;12.60;65.00
810;DHT22;387;48.772;9.186;2023-04-24T08:47:13;12.60;64.50
810;DHT22;387;48.772;9.186;2023-04-24T08:49:40;12.50;64.80
810;DHT22;387;48.772;9.186;2023-04-24T08:52:06;12.40;65.70
810;DHT22;387;48.772;9.186;2023-04-24T08:54:33;12.40;66.10
810;DHT22;387;48.772;9.186;2023-04-24T08:57:01;12.30;67.30
810;DHT22;387;48.772;9.186;2023-04-24T08:59:27;12.30;67.70
810;DHT22;387;48.772;9.186;2023-04-24T09:01:55;12.30;67.50
810;DHT22;387;48.772;9.186;2023-04-24T09:04:22;12.40;67.20
810;DHT22;387;48.772;9.186;2023-04-24T09:06:56;12.50;67.20
810;DHT22;387;48.772;9.186;2023-04-24T09:09:26;12.50;66.90
810;DHT22;387;48.772;9.186;2023-04-24T09:11:54;12.20;67.00
810;DHT22;387;48.772;9.186;2023-04-24T09:14:21;12.10;67.50
810;DHT22;387;48.772;9.186;2023-04-24T09:16:48;12.00;68.20
810;DHT22;387;48.772;9.186;2023-04-24T09:19:14;12.00;68.30
810;DHT22;387;48.772;9.186;2023-04-24T09:21:39;12.00;68.90
810;DHT22;387;48.772;9.186;2023-04-24T09:24:14;11.90;69.70
810;DHT22;387;48.772;9.186;2023-04-24T09:26:40;12.00;70.20
810;DHT22;387;48.772;9.186;2023-04-24T09:29:05;11.50;69.90
810;DHT22;387;48.772;9.186;2023-04-24T09:31:31;11.40;71.30
810;DHT22;387;48.772;9.186;2023-04-24T09:34:02;11.40;71.60
810;DHT22;387;48.772;9.186;2023-04-24T09:36:35;11.40;72.10
810;DHT22;387;48.772;9.186;2023-04-24T09:39:05;11.50;72.40
810;DHT22;387;48.772;9.186;2023-04-24T09:41:33;11.50;72.10
810;DHT22;387;48.772;9.186;2023-04-24T09:44:21;11.50;71.80
810;DHT22;387;48.772;9.186;2023-04-24T09:46:51;11.40;72.40
810;DHT22;387;48.772;9.186;2023-04-24T09:49:29;11.40;70.70
810;DHT22;387;48.772;9.186;2023-04-24T09:52:09;11.90;71.10
810;DHT22;387;48.772;9.186;2023-04-24T09:54:36;12.00;68.90
810;DHT22;387;48.772;9.186;2023-04-24T09:57:06;12.00;68.50
810;DHT22;387;48.772;9.186;2023-04-24T09:59:32;12.10;68.30
810;DHT22;387;48.772;9.186;2023-04-24T10:01:59;12.30;67.60
810;DHT22;387;48.772;9.186;2023-04-24T10:04:27;12.30;67.20
810;DHT22;387;48.772;9.186;2023-04-24T10:06:54;12.00;66.40
810;DHT22;387;48.772;9.186;2023-04-24T10:09:25;12.10;66.60
810;DHT22;387;48.772;9.186;2023-04-24T10:11:53;12.20;64.10
810;DHT22;387;48.772;9.186;2023-04-24T10:14:23;12.10;64.50
810;DHT22;387;48.772;9.186;2023-04-24T10:16:51;11.80;62.80
810;DHT22;387;48.772;9.186;2023-04-24T10:19:18;11.70;63.20
810;DHT22;387;48.772;9.186;2023-04-24T10:21:44;11.80;61.70
810;DHT22;387;48.772;9.186;2023-04-24T10:24:17;12.00;61.20
810;DHT22;387;48.772;9.186;2023-04-24T10:26:43;12.20;60.60
810;DHT22;387;48.772;9.186;2023-04-24T10:29:12;12.40;59.70
810;DHT22;387;48.772;9.186;2023-04-24T10:31:39;12.80;58.80
810;DHT22;387;48.772;9.186;2023-04-24T10:34:06;13.30;57.80
810;DHT22;387;48.772;9.186;2023-04-24T10:36:33;13.70;56.80
810;DHT22;387;48.772;9.186;2023-04-24T10:39:01;13.60;56.00
810;DHT22;387;48.772;9.186;2023-04-24T10:41:30;13.60;56.00
810;DHT22;387;48.772;9.186;2023-04-24T10:44:12;13.40;56.80
810;DHT22;387;48.772;9.186;2023-04-24T10:46:39;13.20;58.00
810;DHT22;387;48.772;9.186;2023-04-24T10:49:07;13.00;58.80
810;DHT22;387;48.772;9.186;2023-04-24T10:51:49;12.90;59.70
810;DHT22;387;48.772;9.186;2023-04-24T10:54:28;12.90;59.60
810;DHT22;387;48.772;9.186;2023-04-24T10:59:46;12.80;60.10
810;DHT22;387;48.772;9.186;2023-04-24T11:02:16;12.60;60.90
810;DHT22;387;48.772;9.186;2023-04-24T11:04:42;12.70;61.30
810;DHT22;387;48.772;9.186;2023-04-24T11:07:11;12.80;61.50
810;DHT22;387;48.772;9.186;2023-04-24T11:09:37;12.50;61.70
810;DHT22;387;48.772;9.186;2023-04-24T11:12:14;12.50;62.50
810;DHT22;387;48.772;9.186;2023-04-24T11:17:35;12.70;62.60
810;DHT22;387;48.772;9.186;2023-04-24T11:20:10;12.80;62.00
810;DHT22;387;48.772;9.186;2023-04-24T11:22:39;12.90;61.20
810;DHT22;387;48.772;9.186;2023-04-24T11:25:08;13.00;60.60
810;DHT22;387;48.772;9.186;2023-04-24T11:27:44;12.80;60.30
810;DHT22;387;48.772;9.186;2023-04-24T11:30:17;12.90;60.30
810;DHT22;387;48.772;9.186;2023-04-24T11:32:47;13.20;60.10
810;DHT22;387;48.772;9.186;2023-04-24T11:35:22;13.90;59.50
810;DHT22;387;48.772;9.186;2023-04-24T11:37:52;14.30;56.60
810;DHT22;387;48.772;9.186;2023-04-24T11:40:26;14.50;56.50
810;DHT22;387;48.772;9.186;2023-04-24T11:42:55;14.60;56.10
810;DHT22;387;48.772;9.186;2023-04-24T11:45:25;14.30;56.10
810;DHT22;387;48.772;9.186;2023-04-24T11:47:52;13.70;57.80
810;DHT22;387;48.772;9.186;2023-04-24T11:50:22;13.10;59.90
810;DHT22;387;48.772;9.186;2023-04-24T11:52:49;13.00;60.70
810;DHT22;387;48.772;9.186;2023-04-24T12:00:16;12.60;62.90
810;DHT22;387;48.772;9.186;2023-04-24T12:02:42;12.40;64.20
810;DHT22;387;48.772;9.186;2023-04-24T12:05:08;12.70;63.90
810;DHT22;387;48.772;9.186;2023-04-24T12:07:43;12.80;62.90
810;DHT22;387;48.772;9.186;2023-04-24T12:10:09;12.90;62.20
810;DHT22;387;48.772;9.186;2023-04-24T12:12:34;13.00;61.50
810;DHT22;387;48.772;9.186;2023-04-24T12:15:01;13.10;60.90
810;DHT22;387;48.772;9.186;2023-04-24T12:17:31;12.90;60.10
810;DHT22;387;48.772;9.186;2023-04-24T12:20:03;12.50;61.20
810;DHT22;387;48.772;9.186;2023-04-24T12:25:13;12.70;62.20
810;DHT22;387;48.772;9.186;2023-04-24T12:27:38;12.70;62.30
810;DHT22;387;48.772;9.186;2023-04-24T12:30:15;12.60;61.70
810;DHT22;387;48.772;9.186;2023-04-24T12:32:42;12.50;61.60
810;DHT22;387;48.772;9.186;2023-04-24T12:35:08;12.70;61.20
810;DHT22;387;48.772;9.186;2023-04-24T12:37:37;12.70;60.90
810;DHT22;387;48.772;9.186;2023-04-24T12:40:09;12.80;60.10
810;DHT22;387;48.772;9.186;2023-04-24T12:42:35;12.90;60.10
810;DHT22;387;48.772;9.186;2023-04-24T12:45:06;12.70;60.60
810;DHT22;387;48.772;9.186;2023-04-24T12:47:32;12.90;59.70
810;DHT22;387;48.772;9.186;2023-04-24T12:49:59;13.00;59.30
810;DHT22;387;48.772;9.186;2023-04-24T12:52:26;13.00;59.60
810;DHT22;387;48.772;9.186;2023-04-24T12:54:54;13.10;59.70
810;DHT22;387;48.772;9.186;2023-04-24T12:57:21;13.00;59.70
810;DHT22;387;48.772;9.186;2023-04-24T12:59:47;12.70;60.10
810;DHT22;387;48.772;9.186;2023-04-24T13:02:12;12.70;60.70
810;DHT22;387;48.772;9.186;2023-04-24T13:04:38;12.60;62.90
810;DHT22;387;48.772;9.186;2023-04-24T13:07:05;12.50;64.10
810;DHT22;387;48.772;9.186;2023-04-24T13:09:31;12.30;64.80
810;DHT22;387;48.772;9.186;2023-04-24T13:11:57;12.10;66.40
810;DHT22;387;48.772;9.186;2023-04-24T13:14:23;12.20;69.90
810;DHT22;387;48.772;9.186;2023-04-24T13:16:49;12.00;70.40
810;DHT22;387;48.772;9.186;2023-04-24T13:19:14;12.20;71.10
810;DHT22;387;48.772;9.186;2023-04-24T13:21:40;12.30;70.10
810;DHT22;387;48.772;9.186;2023-04-24T13:24:06;12.40;69.90
810;DHT22;387;48.772;9.186;2023-04-24T13:26:33;12.60;68.80
810;DHT22;387;48.772;9.186;2023-04-24T13:28:59;12.60;68.60
810;DHT22;387;48.772;9.186;2023-04-24T13:31:24;13.00;68.90
810;DHT22;387;48.772;9.186;2023-04-24T13:33:50;13.10;67.30
810;DHT22;387;48.772;9.186;2023-04-24T13:36:15;13.10;67.50
810;DHT22;387;48.772;9.186;2023-04-24T13:38:43;12.90;67.50
810;DHT22;387;48.772;9.186;2023-04-24T13:41:09;12.70;68.80
810;DHT22;387;48.772;9.186;2023-04-24T13:43:35;12.70;67.90
810;DHT22;387;48.772;9.186;2023-04-24T13:46:01;12.70;67.90
810;DHT22;387;48.772;9.186;2023-04-24T13:48:29;12.70;67.60
810;DHT22;387;48.772;9.186;2023-04-24T13:50:54;12.50;69.90
810;DHT22;387;48.772;9.186;2023-04-24T13:53:22;12.00;71.10
810;DHT22;387;48.772;9.186;2023-04-24T13:55:48;11.50;72.60
810;DHT22;387;48.772;9.186;2023-04-24T13:58:13;11.20;73.50
810;DHT22;387;48.772;9.186;2023-04-24T14:00:43;10.90;73.50
810;DHT22;387;48.772;9.186;2023-04-24T14:03:09;10.70;75.20
810;DHT22;387;48.772;9.186;2023-04-24T14:05:34;10.70;76.50
810;DHT22;387;48.772;9.186;2023-04-24T14:08:00;10.80;77.60
810;DHT22;387;48.772;9.186;2023-04-24T14:10:26;11.30;76.20
810;DHT22;387;48.772;9.186;2023-04-24T14:12:52;11.80;73.70
810;DHT22;387;48.772;9.186;2023-04-24T14:15:18;12.10;72.40
810;DHT22;387;48.772;9.186;2023-04-24T14:17:44;12.40;72.10
810;DHT22;387;48.772;9.186;2023-04-24T14:20:11;12.50;69.70
810;DHT22;387;48.772;9.186;2023-04-24T14:22:37;12.80;70.80
810;DHT22;387;48.772;9.186;2023-04-24T14:25:03;13.10;69.50
810;DHT22;387;48.772;9.186;2023-04-24T14:27:29;13.70;68.00
810;DHT22;387;48.772;9.186;2023-04-24T14:29:55;13.10;67.50
810;DHT22;387;48.772;9.186;2023-04-24T14:32:21;13.00;67.90
810;DHT22;387;48.772;9.186;2023-04-24T14:34:46;12.70;68.50
810;DHT22;387;48.772;9.186;2023-04-24T14:37:12;12.40;68.50
810;DHT22;387;48.772;9.186;2023-04-24T14:39:38;12.60;68.50
810;DHT22;387;48.772;9.186;2023-04-24T14:42:03;12.80;68.00
810;DHT22;387;48.772;9.186;2023-04-24T14:44:29;13.10;67.30
810;DHT22;387;48.772;9.186;2023-04-24T14:46:54;13.30;66.70
810;DHT22;387;48.772;9.186;2023-04-24T14:49:20;13.10;66.70
810;DHT22;387;48.772;9.186;2023-04-24T14:51:46;12.60;67.30
810;DHT22;387;48.772;9.186;2023-04-24T14:54:11;12.10;68.60
810;DHT22;387;48.772;9.186;2023-04-24T14:56:37;12.10;69.50
810;DHT22;387;48.772;9.186;2023-04-24T14:59:06;12.40;69.10
810;DHT22;387;48.772;9.186;2023-04-24T15:01:32;12.30;68.60
810;DHT22;387;48.772;9.186;2023-04-24T15:03:57;12.60;69.10
810;DHT22;387;48.772;9.186;2023-04-24T15:06:23;13.50;67.90
810;DHT22;387;48.772;9.186;2023-04-24T15:08:50;13.50;65.70
810;DHT22;387;48.772;9.186;2023-04-24T15:11:16;13.50;66.30
810;DHT22;387;48.772;9.186;2023-04-24T15:13:41;13.20;66.00
810;DHT22;387;48.772;9.186;2023-04-24T15:16:07;12.70;66.30
810;DHT22;387;48.772;9.186;2023-04-24T15:18:32;12.60;66.70
810;DHT22;387;48.772;9.186;2023-04-24T15:20:58;12.70;67.20
810;DHT22;387;48.772;9.186;2023-04-24T15:23:23;12.60;67.30
810;DHT22;387;48.772;9.186;2023-04-24T15:25:49;12.60;67.60
810;DHT22;387;48.772;9.186;2023-04-24T15:28:15;12.40;67.90
810;DHT22;387;48.772;9.186;2023-04-24T15:30:41;12.30;67.90
810;DHT22;387;48.772;9.186;2023-04-24T15:33:07;12.00;68.00
810;DHT22;387;48.772;9.186;2023-04-24T15:35:33;12.00;68.30
810;DHT22;387;48.772;9.186;2023-04-24T15:37:59;12.00;68.50
810;DHT22;387;48.772;9.186;2023-04-24T15:40:25;12.20;68.50
810;DHT22;387;48.772;9.186;2023-04-24T15:42:50;12.30;69.80
810;DHT22;387;48.772;9.186;2023-04-24T15:45:16;11.90;71.40
810;DHT22;387;48.772;9.186;2023-04-24T15:47:44;11.60;73.60
810;DHT22;387;48.772;9.186;2023-04-24T15:50:10;11.40;74.90
810;DHT22;387;48.772;9.186;2023-04-24T15:52:36;11.10;73.70
810;DHT22;387;48.772;9.186;2023-04-24T15:55:03;10.90;75.10
810;DHT22;387;48.772;9.186;2023-04-24T15:57:29;10.90;75.90
810;DHT22;387;48.772;9.186;2023-04-24T15:59:55;10.90;76.10
810;DHT22;387;48.772;9.186;2023-04-24T16:02:20;11.20;77.30
810;DHT22;387;48.772;9.186;2023-04-24T16:04:48;11.60;77.30
810;DHT22;387;48.772;9.186;2023-04-24T16:07:14;12.60;74.20
810;DHT22;387;48.772;9.186;2023-04-24T16:09:42;13.10;70.80
810;DHT22;387;48.772;9.186;2023-04-24T16:12:08;13.40;69.70
810;DHT22;387;48.772;9.186;2023-04-24T16:14:35;13.40;68.80
810;DHT22;387;48.772;9.186;2023-04-24T16:17:01;13.30;69.40
810;DHT22;387;48.772;9.186;2023-04-24T16:19:27;13.70;69.90
810;DHT22;387;48.772;9.186;2023-04-24T16:21:53;14.40;68.80
810;DHT22;387;48.772;9.186;2023-04-24T16:24:21;15.10;66.10
810;DHT22;387;48.772;9.186;2023-04-24T16:26:48;14.60;66.10
810;DHT22;387;48.772;9.186;2023-04-24T16:29:13;13.80;67.60
810;DHT22;387;48.772;9.186;2023-04-24T16:31:40;13.20;69.20
810;DHT22;387;48.772;9.186;2023-04-24T16:34:06;12.80;70.80
810;DHT22;387;48.772;9.186;2023-04-24T16:36:31;12.50;71.30
810;DHT22;387;48.772;9.186;2023-04-24T16:38:57;12.30;72.00
810;DHT22;387;48.772;9.186;2023-04-24T16:41:25;12.30;72.40
810;DHT22;387;48.772;9.186;2023-04-24T16:43:51;12.20;72.30